Time;durP1;ratioP1;P1;durP2;ratioP2;P2;SDS_P1;SDS_P2;PMS_P1;PMS_P2;Temp;Humidity;BMP_temperature;BMP_pressure;BME280_temperature;BME280_humidity;BME280_pressure;Samples;Min_cycle;Max_cycle;Signal;HPM_P1;HPM_P2
2022/06/12 00:00:10;;;;;;;10.15;3.83;;;18.90;99.90;;;;;;5029540;28;20025;-80
2022/06/12 00:02:35;;;;;;;;;;;18.80;99.90;;;;;;5030013;28;20570;-80
2022/06/12 00:05:02;;;;;;;8.80;3.65;;;18.70;99.90;;;;;;5031509;28;19913;-80
2022/06/12 00:07:27;;;;;;;9.38;3.42;;;18.70;99.90;;;;;;5030693;28;20168;-80
2022/06/12 00:09:53;;;;;;;12.90;4.22;;;18.70;99.90;;;;;;5031063;28;20104;-81
2022/06/12 00:12:19;;;;;;;12.38;3.63;;;18.60;99.90;;;;;;5030018;28;20077;-80
2022/06/12 00:14:45;;;;;;;10.63;3.58;;;18.60;99.90;;;;;;5031117;28;20112;-81
2022/06/12 00:17:10;;;;;;;9.95;3.40;;;18.60;99.90;;;;;;5030886;28;20359;-81
2022/06/12 00:19:37;;;;;;;10.10;3.92;;;18.50;99.90;;;;;;5030720;28;20497;-80
2022/06/12 00:22:04;;;;;;;11.77;3.58;;;18.50;99.90;;;;;;5029454;28;20033;-81
2022/06/12 00:24:29;;;;;;;10.23;3.80;;;18.50;99.90;;;;;;5030751;28;20025;-81
2022/06/12 00:26:57;;;;;;;15.82;4.35;;;18.50;99.90;;;;;;5029680;28;20091;-80
2022/06/12 00:29:27;;;;;;;12.23;4.25;;;18.40;99.90;;;;;;5029022;28;20049;-80
2022/06/12 00:31:58;;;;;;;14.27;5.15;;;18.30;99.90;;;;;;5029318;28;20100;-80
2022/06/12 00:34:29;;;;;;;13.95;5.15;;;18.30;99.90;;;;;;5030467;28;20056;-80
2022/06/12 00:36:56;;;;;;;13.30;5.20;;;18.20;99.90;;;;;;5030211;28;20099;-81
2022/06/12 00:39:22;;;;;;;12.00;4.95;;;18.20;99.90;;;;;;5030303;28;20079;-80
2022/06/12 00:41:54;;;;;;;11.32;4.72;;;18.10;99.90;;;;;;5028080;28;20037;-80
2022/06/12 00:44:24;;;;;;;10.27;4.55;;;18.10;99.90;;;;;;5029097;28;20041;-81
2022/06/12 00:46:54;;;;;;;13.35;4.85;;;18.00;99.90;;;;;;5030139;28;20117;-81
2022/06/12 00:49:34;;;;;;;12.80;5.13;;;18.00;99.90;;;;;;5028801;28;20413;-81
2022/06/12 00:52:37;;;;;;;12.35;5.00;;;18.00;99.90;;;;;;5030201;28;20041;-81
2022/06/12 00:55:44;;;;;;;12.95;5.10;;;17.90;99.90;;;;;;4969030;28;20023;-80
2022/06/12 00:58:15;;;;;;;10.38;4.90;;;17.80;99.90;;;;;;5028946;28;20114;-82
2022/06/12 01:00:41;;;;;;;14.50;5.68;;;17.80;99.90;;;;;;5030041;28;20781;-82
2022/06/12 01:03:08;;;;;;;13.73;5.45;;;17.80;99.90;;;;;;5029829;28;20103;-82
2022/06/12 01:08:20;;;;;;;14.55;5.43;;;17.70;99.90;;;;;;5030161;28;20435;-82
2022/06/12 01:10:49;;;;;;;11.93;3.95;;;17.70;99.90;;;;;;5029810;28;20057;-82
2022/06/12 01:13:29;;;;;;;14.27;4.75;;;17.70;99.90;;;;;;5029396;28;20378;-82
2022/06/12 01:15:58;;;;;;;9.38;4.43;;;17.60;99.90;;;;;;5029854;28;20545;-82
2022/06/12 01:18:26;;;;;;;;;;;17.60;99.90;;;;;;5029066;28;20087;-82
2022/06/12 01:21:01;;;;;;;12.60;3.97;;;17.50;99.90;;;;;;5029830;28;19925;-80
2022/06/12 01:23:34;;;;;;;10.88;3.83;;;17.50;99.90;;;;;;5029685;28;20041;-82
2022/06/12 01:26:20;;;;;;;8.85;4.10;;;17.50;99.90;;;;;;5029206;28;20040;-80
2022/06/12 01:28:47;;;;;;;14.18;4.45;;;17.40;99.90;;;;;;5029843;28;20407;-81
2022/06/12 01:31:30;;;;;;;11.68;4.70;;;17.30;99.90;;;;;;5029675;28;20030;-81
2022/06/12 01:34:21;;;;;;;9.85;4.22;;;17.40;99.90;;;;;;5029618;28;20374;-81
2022/06/12 01:37:21;;;;;;;11.63;3.55;;;17.40;99.90;;;;;;5029449;28;20030;-81
2022/06/12 01:39:50;;;;;;;11.07;3.58;;;17.30;99.90;;;;;;5029688;28;20037;-81
2022/06/12 01:42:27;;;;;;;10.77;3.60;;;17.30;99.90;;;;;;5028704;28;20397;-81
2022/06/12 01:45:08;;;;;;;14.23;4.45;;;17.20;99.90;;;;;;5029912;28;20034;-81
2022/06/12 01:47:51;;;;;;;11.55;3.67;;;17.10;99.90;;;;;;5029413;28;20040;-81
2022/06/12 01:50:34;;;;;;;10.30;4.15;;;17.10;99.90;;;;;;5029627;28;20033;-81
2022/06/12 01:53:20;;;;;;;10.50;3.53;;;17.00;99.90;;;;;;5029465;28;20033;-81
2022/06/12 01:56:15;;;;;;;10.13;3.53;;;16.90;99.90;;;;;;5029805;28;20367;-81
2022/06/12 01:58:50;;;;;;;10.88;3.65;;;16.90;99.90;;;;;;5029795;28;20034;-81
2022/06/12 02:01:28;;;;;;;15.25;4.00;;;16.90;99.90;;;;;;5028101;28;20039;-81
2022/06/12 02:04:00;;;;;;;11.45;4.18;;;16.90;99.90;;;;;;5029511;28;20061;-81
2022/06/12 02:06:33;;;;;;;10.85;4.38;;;16.90;99.90;;;;;;5027967;28;20034;-81
2022/06/12 02:09:06;;;;;;;10.13;4.32;;;16.80;99.90;;;;;;5031578;28;20108;-80
2022/06/12 02:14:49;;;;;;;13.48;4.65;;;16.70;99.90;;;;;;5033411;28;20090;-81
2022/06/12 02:17:22;;;;;;;10.13;3.80;;;16.80;99.90;;;;;;5033164;28;20136;-81
2022/06/12 02:19:49;;;;;;;11.18;4.10;;;16.70;99.90;;;;;;5033224;28;20052;-81
2022/06/12 02:22:24;;;;;;;11.95;3.75;;;16.80;99.90;;;;;;5032893;28;20037;-81
2022/06/12 02:25:14;;;;;;;10.85;3.47;;;16.70;99.90;;;;;;5033141;28;20025;-81
2022/06/12 02:28:11;;;;;;;8.80;3.95;;;16.70;99.90;;;;;;5031974;28;20037;-81
2022/06/12 02:30:43;;;;;;;9.45;2.92;;;16.60;99.90;;;;;;5033064;28;20208;-81
2022/06/12 02:33:21;;;;;;;9.80;3.70;;;16.60;99.90;;;;;;5032672;28;20045;-81
2022/06/12 02:36:01;;;;;;;11.27;3.83;;;16.60;99.90;;;;;;5032830;28;20111;-81
2022/06/12 02:38:35;;;;;;;10.50;3.53;;;16.50;99.90;;;;;;5032688;28;20458;-81
2022/06/12 02:41:15;;;;;;;11.18;3.80;;;16.60;99.90;;;;;;5032084;28;20243;-81
2022/06/12 02:43:44;;;;;;;13.68;4.05;;;16.50;99.90;;;;;;5032817;28;20034;-81
2022/06/12 02:46:23;;;;;;;10.80;3.63;;;16.50;99.90;;;;;;5032389;28;20069;-81
2022/06/12 02:48:51;;;;;;;9.77;3.20;;;16.40;99.90;;;;;;5032299;28;20029;-81
2022/06/12 02:51:33;;;;;;;12.68;3.20;;;16.40;99.90;;;;;;5031043;28;20044;-81
2022/06/12 02:54:39;;;;;;;9.63;3.22;;;16.40;99.90;;;;;;5032456;28;20053;-81
2022/06/12 02:57:25;;;;;;;7.30;2.80;;;16.40;99.90;;;;;;5029572;28;20429;-81
2022/06/12 02:59:59;;;;;;;10.30;3.03;;;16.30;99.90;;;;;;5014480;28;20022;-81
2022/06/12 03:02:44;;;;;;;13.00;4.43;;;16.30;99.90;;;;;;5032117;28;20033;-81
2022/06/12 03:05:24;;;;;;;13.95;3.60;;;16.20;99.90;;;;;;5032347;28;20067;-81
2022/06/12 03:07:55;;;;;;;13.90;3.42;;;16.30;99.90;;;;;;5030689;28;20456;-81
2022/06/12 03:10:25;;;;;;;10.63;3.33;;;16.20;99.90;;;;;;5032185;28;20072;-81
2022/06/12 03:12:51;;;;;;;11.20;3.00;;;16.20;99.90;;;;;;5013319;28;20037;-81
2022/06/12 03:15:31;;;;;;;10.98;3.22;;;16.20;99.90;;;;;;5032171;28;20022;-81
2022/06/12 03:18:00;;;;;;;9.82;3.28;;;16.30;99.90;;;;;;5031592;28;20056;-81
2022/06/12 03:20:33;;;;;;;9.47;3.30;;;16.20;99.90;;;;;;5030732;28;20026;-81
2022/06/12 03:23:22;;;;;;;11.00;3.35;;;16.10;99.90;;;;;;5013764;28;20283;-81
2022/06/12 03:25:53;;;;;;;11.63;3.40;;;16.10;99.90;;;;;;5030370;28;20112;-81
2022/06/12 03:28:34;;;;;;;13.57;4.07;;;16.10;99.90;;;;;;5030888;28;20061;-81
2022/06/12 03:31:21;;;;;;;12.25;3.60;;;16.00;99.90;;;;;;5031745;28;20040;-81
2022/06/12 03:34:01;;;;;;;8.95;3.00;;;16.10;99.90;;;;;;5030496;28;20110;-80
2022/06/12 03:36:44;;;;;;;8.15;2.80;;;16.00;99.90;;;;;;5031512;28;20034;-81
2022/06/12 03:39:39;;;;;;;8.98;2.92;;;16.00;99.90;;;;;;5031555;28;20029;-81
2022/06/12 03:42:32;;;;;;;7.57;3.50;;;16.00;99.90;;;;;;5025346;28;20049;-81
2022/06/12 03:45:15;;;;;;;9.43;3.17;;;16.00;99.90;;;;;;5031682;28;20116;-81
2022/06/12 03:48:04;;;;;;;8.35;3.42;;;15.90;99.90;;;;;;5031239;28;20029;-81
2022/06/12 03:50:40;;;;;;;8.63;2.92;;;15.80;99.90;;;;;;5030834;28;20041;-81
2022/06/12 03:53:09;;;;;;;11.80;3.53;;;15.80;99.90;;;;;;5031105;28;20338;-81
2022/06/12 03:58:36;;;;;;;11.30;3.47;;;15.80;99.90;;;;;;5031032;28;20034;-82
2022/06/12 04:01:02;;;;;;;10.95;3.35;;;15.80;99.90;;;;;;5031210;28;20056;-81
2022/06/12 04:03:35;;;;;;;8.95;3.22;;;15.80;99.90;;;;;;5031179;28;20029;-81
2022/06/12 04:06:05;;;;;;;8.77;3.00;;;15.70;99.90;;;;;;5030785;28;20037;-81
2022/06/12 04:09:00;;;;;;;11.05;3.50;;;15.80;99.90;;;;;;5031107;28;20474;-81
2022/06/12 04:11:28;;;;;;;7.93;3.05;;;15.80;99.90;;;;;;5026999;28;20661;-81
2022/06/12 04:13:56;;;;;;;10.23;2.87;;;15.80;99.90;;;;;;5030986;28;20159;-81
2022/06/12 04:16:36;;;;;;;6.85;3.10;;;15.80;99.90;;;;;;5030948;28;20025;-81
2022/06/12 04:19:06;;;;;;;13.98;3.30;;;15.80;99.90;;;;;;5030639;28;20025;-81
2022/06/12 04:21:33;;;;;;;8.13;2.75;;;15.80;99.90;;;;;;5030745;28;20071;-81
2022/06/12 04:23:59;;;;;;;12.15;3.17;;;15.80;99.90;;;;;;5029315;28;20056;-81
2022/06/12 04:26:47;;;;;;;8.13;3.10;;;15.80;99.90;;;;;;5029740;28;20025;-81
2022/06/12 04:29:13;;;;;;;12.23;3.03;;;15.80;99.90;;;;;;5030383;28;20112;-81
2022/06/12 04:31:42;;;;;;;14.27;3.30;;;15.90;99.90;;;;;;5030365;28;20065;-81
2022/06/12 04:34:25;;;;;;;7.53;3.17;;;15.90;99.90;;;;;;5030517;28;20034;-81
2022/06/12 04:37:03;;;;;;;10.10;3.60;;;15.90;99.90;;;;;;5030363;28;20037;-81
2022/06/12 04:39:31;;;;;;;8.68;3.13;;;15.90;99.90;;;;;;5030240;28;20025;-81
2022/06/12 04:41:58;;;;;;;11.07;4.22;;;16.00;99.90;;;;;;5029534;28;20116;-81
2022/06/12 04:44:24;;;;;;;9.05;3.42;;;16.00;99.90;;;;;;5029446;28;20240;-81
2022/06/12 04:46:52;;;;;;;12.32;3.58;;;16.00;99.90;;;;;;5028776;28;20029;-81
2022/06/12 04:49:23;;;;;;;8.73;3.80;;;16.10;99.90;;;;;;5012587;28;20030;-81
2022/06/12 04:51:49;;;;;;;7.85;3.35;;;16.10;99.90;;;;;;5030093;28;20486;-81
2022/06/12 04:54:15;;;;;;;12.07;4.18;;;16.20;99.90;;;;;;5030360;28;20029;-81
2022/06/12 04:56:42;;;;;;;7.85;3.72;;;16.20;99.90;;;;;;5029335;28;20036;-81
2022/06/12 04:59:08;;;;;;;10.70;3.65;;;16.20;99.90;;;;;;5028825;28;20437;-81
2022/06/12 05:01:34;;;;;;;6.63;3.30;;;16.30;99.90;;;;;;5028712;28;20052;-81
2022/06/12 05:04:03;;;;;;;10.50;3.80;;;16.30;99.90;;;;;;5030223;28;20029;-81
2022/06/12 05:06:29;;;;;;;12.85;4.28;;;16.40;99.90;;;;;;5028380;28;20159;-81
2022/06/12 05:08:56;;;;;;;11.90;4.13;;;16.50;99.90;;;;;;5030001;28;20033;-81
2022/06/12 05:11:22;;;;;;;10.18;3.50;;;16.50;99.90;;;;;;5029134;28;20443;-81
2022/06/12 05:13:49;;;;;;;10.70;3.70;;;16.50;99.90;;;;;;5029999;28;20030;-81
2022/06/12 05:16:42;;;;;;;10.57;3.78;;;16.60;99.90;;;;;;5029806;28;20397;-81
2022/06/12 05:19:12;;;;;;;9.73;3.60;;;16.60;99.90;;;;;;5028602;28;20056;-81
2022/06/12 05:21:39;;;;;;;11.27;3.85;;;16.60;99.90;;;;;;5028636;28;20410;-81
2022/06/12 05:24:05;;;;;;;12.13;4.10;;;16.70;99.90;;;;;;5042610;23;20069;-87
2022/06/12 05:26:33;;;;;;;10.43;4.38;;;16.80;99.90;;;;;;5027729;28;20029;-87
2022/06/12 05:29:01;;;;;;;9.38;3.58;;;16.80;99.90;;;;;;5028820;28;20052;-87
2022/06/12 05:31:27;;;;;;;8.80;3.65;;;16.90;99.90;;;;;;5029773;28;20489;-86
2022/06/12 05:33:53;;;;;;;9.55;3.63;;;16.90;99.90;;;;;;5028711;28;20116;-87
2022/06/12 05:36:20;;;;;;;11.20;4.20;;;17.00;99.90;;;;;;5012047;28;20033;-87
2022/06/12 05:38:50;;;;;;;10.70;4.15;;;17.10;99.90;;;;;;5028509;28;20030;-87
2022/06/12 05:41:16;;;;;;;;;;;17.10;99.90;;;;;;5029450;28;20029;-87
2022/06/12 05:43:42;;;;;;;8.77;3.58;;;17.20;99.90;;;;;;5031573;28;20368;-87
2022/06/12 05:46:13;;;;;;;9.70;4.13;;;17.30;99.90;;;;;;5032603;28;20118;-87
2022/06/12 05:48:40;;;;;;;7.60;3.13;;;17.30;99.90;;;;;;5032729;28;20033;-87
2022/06/12 05:51:09;;;;;;;9.40;3.70;;;17.50;99.90;;;;;;5032516;28;20127;-87
2022/06/12 05:53:38;;;;;;;9.38;3.70;;;17.50;99.90;;;;;;5033709;28;20053;-87
2022/06/12 05:56:05;;;;;;;;;;;17.60;99.90;;;;;;5031921;28;20060;-87
2022/06/12 05:58:31;;;;;;;10.00;3.47;;;17.70;99.90;;;;;;5032436;28;20004;-88
2022/06/12 06:00:57;;;;;;;10.18;2.97;;;17.70;99.90;;;;;;5032372;28;20037;-87
2022/06/12 06:03:23;;;;;;;10.65;3.22;;;17.70;99.90;;;;;;5033449;28;20029;-88
2022/06/12 06:05:50;;;;;;;10.32;2.95;;;17.80;99.90;;;;;;5032336;28;20156;-87
2022/06/12 06:08:17;;;;;;;13.43;2.95;;;17.80;99.90;;;;;;5033406;28;20107;-87
2022/06/12 06:10:43;;;;;;;12.43;2.75;;;17.90;99.90;;;;;;5031917;28;20501;-87
2022/06/12 06:13:09;;;;;;;12.80;3.17;;;17.90;99.90;;;;;;5031213;28;20116;-87
2022/06/12 06:15:36;;;;;;;11.52;3.08;;;18.00;99.90;;;;;;5032079;28;20403;-87
2022/06/12 06:18:04;;;;;;;14.25;3.58;;;18.00;99.90;;;;;;5031994;28;20478;-87
2022/06/12 06:20:34;;;;;;;13.20;3.83;;;18.00;99.90;;;;;;5015563;28;20026;-87
2022/06/12 06:23:00;;;;;;;14.55;3.60;;;18.10;99.90;;;;;;5032955;28;20095;-87
2022/06/12 06:25:29;;;;;;;18.85;4.10;;;18.10;99.90;;;;;;5033655;28;20045;-87
2022/06/12 06:27:56;;;;;;;18.73;4.28;;;18.20;99.90;;;;;;5032215;28;20490;-88
2022/06/12 06:30:23;;;;;;;20.23;6.25;;;18.20;99.40;;;;;;5032322;28;20037;-87
2022/06/12 06:32:50;;;;;;;13.90;4.88;;;18.20;99.20;;;;;;5033163;28;20150;-87
2022/06/12 06:35:16;;;;;;;14.50;4.57;;;18.20;99.20;;;;;;5033253;28;20390;-87
2022/06/12 06:37:43;;;;;;;17.00;4.47;;;18.30;99.20;;;;;;5032779;28;20028;-87
2022/06/12 06:40:11;;;;;;;9.20;4.32;;;18.30;99.40;;;;;;5031875;28;20052;-87
2022/06/12 06:42:38;;;;;;;13.40;4.32;;;18.30;99.50;;;;;;5030946;28;20340;-87
2022/06/12 06:47:52;;;;;;;13.20;5.25;;;18.40;99.20;;;;;;5031475;28;20033;-87
2022/06/12 06:50:20;;;;;;;13.65;5.20;;;18.40;99.50;;;;;;5032782;28;20313;-87
2022/06/12 06:52:46;;;;;;;15.45;4.95;;;18.50;99.80;;;;;;5031302;28;20032;-88
2022/06/12 06:55:12;;;;;;;14.00;4.00;;;18.50;99.90;;;;;;5014488;28;20371;-87
2022/06/12 06:57:42;;;;;;;12.50;4.20;;;18.50;99.90;;;;;;5031607;28;20406;-87
2022/06/12 07:00:12;;;;;;;13.23;4.10;;;18.50;99.90;;;;;;5032382;28;20482;-87
2022/06/12 07:02:39;;;;;;;15.60;4.40;;;18.60;99.90;;;;;;5032180;28;20033;-87
2022/06/12 07:05:05;;;;;;;15.35;4.85;;;18.60;99.90;;;;;;5032582;28;20316;-87
2022/06/12 07:07:33;;;;;;;18.33;4.97;;;18.60;99.90;;;;;;5032130;28;20052;-87
2022/06/12 07:09:58;;;;;;;13.95;4.55;;;18.70;99.90;;;;;;5014577;28;20033;-88
2022/06/12 07:12:24;;;;;;;15.35;4.22;;;18.70;99.90;;;;;;5031324;28;20075;-87
2022/06/12 07:14:50;;;;;;;13.70;3.38;;;18.70;99.90;;;;;;5031205;28;20425;-88
2022/06/12 07:17:17;;;;;;;13.25;3.45;;;18.70;99.80;;;;;;5014395;28;20021;-87
2022/06/12 07:19:43;;;;;;;12.95;3.13;;;18.80;99.90;;;;;;5031800;28;20033;-88
2022/06/12 07:22:09;;;;;;;15.80;3.92;;;18.80;99.90;;;;;;5030925;28;20052;-87
2022/06/12 07:24:35;;;;;;;15.75;4.13;;;18.70;99.70;;;;;;5032000;28;20029;-86
2022/06/12 07:27:01;;;;;;;12.13;3.35;;;18.80;98.50;;;;;;5029835;28;20037;-88
2022/06/12 07:29:27;;;;;;;17.33;3.30;;;18.80;99.00;;;;;;5031900;28;20030;-88
2022/06/12 07:31:53;;;;;;;13.63;3.25;;;18.80;99.40;;;;;;5030347;28;20044;-87
2022/06/12 07:34:19;;;;;;;16.40;4.05;;;18.90;99.10;;;;;;5032074;28;20025;-88
2022/06/12 07:36:47;;;;;;;12.15;2.60;;;18.90;98.60;;;;;;5031960;28;20032;-86
2022/06/12 07:39:18;;;;;;;15.00;3.20;;;18.90;98.20;;;;;;5031564;28;20061;-87
2022/06/12 07:41:48;;;;;;;14.85;2.95;;;18.90;98.40;;;;;;5030995;28;20604;-88
2022/06/12 07:44:16;;;;;;;9.73;2.33;;;18.90;97.80;;;;;;5030253;28;20033;-87
2022/06/12 07:46:42;;;;;;;9.95;2.60;;;19.00;97.10;;;;;;5013106;28;20030;-88
2022/06/12 07:49:08;;;;;;;16.77;3.22;;;19.00;97.50;;;;;;5031677;28;20040;-87
2022/06/12 07:51:34;;;;;;;13.32;2.78;;;19.00;97.70;;;;;;5033282;28;20056;-87
2022/06/12 07:54:01;;;;;;;11.45;2.70;;;19.00;97.30;;;;;;5031618;28;20047;-87
2022/06/12 07:56:27;;;;;;;9.88;2.35;;;19.00;97.00;;;;;;5038944;28;20426;-88
2022/06/12 07:58:54;;;;;;;11.60;2.50;;;19.00;97.20;;;;;;5046171;28;20026;-87
2022/06/12 08:01:23;;;;;;;7.60;2.15;;;19.00;97.30;;;;;;5030757;28;20026;-88
2022/06/12 08:03:49;;;;;;;10.63;2.22;;;19.10;97.20;;;;;;5031504;28;20053;-88
2022/06/12 08:06:16;;;;;;;9.38;2.53;;;19.10;96.60;;;;;;5029132;28;20049;-87
2022/06/12 08:08:42;;;;;;;10.80;2.50;;;19.10;96.50;;;;;;5031135;28;20033;-87
2022/06/12 08:11:08;;;;;;;7.13;1.88;;;19.20;95.50;;;;;;5012552;28;20037;-88
2022/06/12 08:13:34;;;;;;;13.52;2.55;;;19.20;95.90;;;;;;5029643;28;20028;-88
2022/06/12 08:16:01;;;;;;;9.73;2.00;;;19.20;95.80;;;;;;5030928;28;20053;-88
2022/06/12 08:18:34;;;;;;;12.80;2.50;;;19.20;95.70;;;;;;5029857;28;20063;-87
2022/06/12 08:21:08;;;;;;;9.50;3.05;;;19.30;95.10;;;;;;5029898;28;20136;-88
2022/06/12 08:23:47;;;;;;;8.10;2.42;;;19.30;94.90;;;;;;5031126;28;20489;-87
2022/06/12 08:26:21;;;;;;;9.95;2.10;;;19.30;94.70;;;;;;5028582;28;20029;-88
2022/06/12 08:28:54;;;;;;;9.65;2.28;;;19.40;94.20;;;;;;5029622;28;20049;-87
2022/06/12 08:31:27;;;;;;;8.90;2.25;;;19.40;94.10;;;;;;5030861;28;20431;-87
2022/06/12 08:33:56;;;;;;;9.77;2.90;;;19.40;94.10;;;;;;5030685;28;20076;-87
2022/06/12 08:36:22;;;;;;;9.93;2.90;;;19.40;93.90;;;;;;5030443;28;20064;-87
2022/06/12 08:38:49;;;;;;;11.18;2.10;;;19.50;93.90;;;;;;5029056;28;20497;-87
2022/06/12 08:41:31;;;;;;;9.93;2.72;;;19.50;93.90;;;;;;5029662;28;20025;-88
2022/06/12 08:44:25;;;;;;;8.35;2.38;;;19.50;94.00;;;;;;5030546;28;20500;-87
2022/06/12 08:47:03;;;;;;;6.18;2.10;;;19.60;93.70;;;;;;5008282;28;20582;-88
2022/06/12 08:50:00;;;;;;;9.13;2.13;;;19.60;93.80;;;;;;5029434;28;20053;-87
2022/06/12 08:52:50;;;;;;;9.57;2.28;;;19.60;93.60;;;;;;5028767;28;20037;-87
2022/06/12 08:55:32;;;;;;;9.77;2.53;;;19.70;92.80;;;;;;5030640;28;20426;-87
2022/06/12 08:58:18;;;;;;;10.38;2.13;;;19.70;93.20;;;;;;5029530;28;20117;-87
2022/06/12 09:00:46;;;;;;;6.97;1.90;;;19.80;92.70;;;;;;5029020;28;20079;-87
2022/06/12 09:03:15;;;;;;;12.68;2.33;;;19.80;92.60;;;;;;5030089;28;20457;-87
2022/06/12 09:05:56;;;;;;;8.30;2.40;;;19.80;92.80;;;;;;5030036;28;20029;-87
2022/06/12 09:08:49;;;;;;;9.43;2.50;;;19.80;92.60;;;;;;5028899;28;20481;-86
2022/06/12 09:11:44;;;;;;;8.50;1.70;;;19.80;92.50;;;;;;5029530;28;20505;-87
2022/06/12 09:14:25;;;;;;;8.30;1.95;;;19.80;92.30;;;;;;5006315;28;20103;-87
2022/06/12 09:17:12;;;;;;;11.68;2.47;;;19.90;92.50;;;;;;5030116;28;20068;-87
2022/06/12 09:19:57;;;;;;;6.65;2.00;;;19.90;92.00;;;;;;5028663;28;20033;-88
2022/06/12 09:22:46;;;;;;;10.02;1.85;;;19.90;92.30;;;;;;5029637;28;20146;-87
2022/06/12 09:25:22;;;;;;;8.18;1.55;;;19.80;92.40;;;;;;5012736;28;20490;-89
2022/06/12 09:28:22;;;;;;;6.10;1.45;;;19.80;91.40;;;;;;5028916;28;20074;-87
2022/06/12 09:30:53;;;;;;;8.50;2.05;;;19.80;91.90;;;;;;5028455;28;20037;-87
2022/06/12 09:33:31;;;;;;;8.52;2.03;;;19.90;91.80;;;;;;5029866;28;20033;-87
2022/06/12 09:35:57;;;;;;;8.70;1.80;;;20.00;91.60;;;;;;5029992;28;20025;-87
2022/06/12 09:38:23;;;;;;;7.80;2.03;;;20.00;91.70;;;;;;5030021;28;20381;-87
2022/06/12 09:41:19;;;;;;;7.88;2.10;;;20.00;91.60;;;;;;5028590;28;20391;-87
2022/06/12 09:43:51;;;;;;;5.65;1.65;;;20.10;91.10;;;;;;5029901;28;20025;-86
2022/06/12 09:46:58;;;;;;;5.35;1.48;;;20.10;91.10;;;;;;5029726;28;20049;-87
2022/06/12 09:50:01;;;;;;;8.15;1.70;;;20.10;90.40;;;;;;4996210;28;20041;-87
2022/06/12 09:52:45;;;;;;;8.35;2.25;;;20.10;89.10;;;;;;5029758;28;20080;-86
2022/06/12 09:55:14;;;;;;;11.00;1.60;;;20.20;90.00;;;;;;5028653;28;20040;-87
2022/06/12 09:57:40;;;;;;;6.57;1.85;;;20.20;87.30;;;;;;5028649;28;20032;-86
2022/06/12 10:00:21;;;;;;;6.10;1.92;;;20.30;90.20;;;;;;5029490;28;20021;-87
2022/06/12 10:03:12;;;;;;;8.40;2.25;;;20.30;91.00;;;;;;5029871;28;20123;-87
2022/06/12 10:06:16;;;;;;;5.78;1.75;;;20.40;91.40;;;;;;5029557;28;20038;-88
2022/06/12 10:08:51;;;;;;;6.97;2.00;;;20.40;91.60;;;;;;5028413;28;20060;-87
2022/06/12 10:11:30;;;;;;;6.53;2.10;;;20.30;91.70;;;;;;5027629;28;20088;-87
2022/06/12 10:14:15;;;;;;;10.38;2.00;;;20.40;91.70;;;;;;5029631;28;20041;-88
2022/06/12 10:16:47;;;;;;;7.40;1.85;;;20.40;91.10;;;;;;5028086;28;20040;-87
2022/06/12 10:19:35;;;;;;;9.70;2.38;;;20.40;91.80;;;;;;5029501;28;20030;-87
2022/06/12 10:22:05;;;;;;;;;;;20.50;92.30;;;;;;5029955;28;20079;-88
2022/06/12 10:24:31;;;;;;;7.68;2.22;;;20.50;92.20;;;;;;5029580;28;20289;-88
2022/06/12 10:27:04;;;;;;;8.00;1.67;;;20.60;92.00;;;;;;5028343;28;20478;-86
2022/06/12 10:29:48;;;;;;;9.13;1.85;;;20.60;91.70;;;;;;5030907;28;20044;-88
2022/06/12 10:32:18;;;;;;;9.15;2.65;;;20.60;92.60;;;;;;5032875;28;20033;-87
2022/06/12 10:34:44;;;;;;;8.25;1.98;;;20.70;91.70;;;;;;5031701;28;20032;-88
2022/06/12 10:37:24;;;;;;;9.55;2.08;;;20.70;92.10;;;;;;5032884;28;20021;-88
2022/06/12 10:40:03;;;;;;;10.20;2.10;;;20.80;92.10;;;;;;5032830;28;20051;-88
2022/06/12 10:42:58;;;;;;;8.75;2.42;;;20.80;92.70;;;;;;5032006;28;20505;-87
2022/06/12 10:45:31;;;;;;;11.60;2.35;;;20.90;92.80;;;;;;5032989;28;20025;-88
2022/06/12 10:48:17;;;;;;;12.40;2.17;;;20.90;92.20;;;;;;5031140;28;20026;-87
2022/06/12 10:50:53;;;;;;;15.50;2.97;;;21.00;92.50;;;;;;5032611;28;20448;-87
2022/06/12 10:53:22;;;;;;;7.72;2.10;;;21.00;91.90;;;;;;5032502;28;20026;-88
2022/06/12 10:55:51;;;;;;;8.93;3.10;;;21.00;91.50;;;;;;5014885;28;20025;-88
2022/06/12 10:58:36;;;;;;;8.88;2.08;;;21.10;91.20;;;;;;5030255;28;20025;-87
2022/06/12 11:01:28;;;;;;;13.00;3.20;;;21.20;91.70;;;;;;5032879;28;20036;-88
2022/06/12 11:04:27;;;;;;;11.13;2.50;;;21.20;92.00;;;;;;5014766;28;20047;-88
2022/06/12 11:07:27;;;;;;;9.15;2.83;;;21.20;92.50;;;;;;5032285;28;20120;-88
2022/06/12 11:10:19;;;;;;;9.75;2.47;;;21.20;92.60;;;;;;5030938;28;20029;-88
2022/06/12 11:12:59;;;;;;;10.57;2.28;;;21.10;92.70;;;;;;5000058;28;20044;-87
2022/06/12 11:15:31;;;;;;;9.63;2.33;;;21.10;93.00;;;;;;5031082;28;20032;-88
2022/06/12 11:18:41;;;;;;;10.82;2.45;;;21.00;91.80;;;;;;5032074;28;20159;-87
2022/06/12 11:21:29;;;;;;;10.40;3.75;;;21.10;91.40;;;;;;5031980;28;20029;-88
2022/06/12 11:24:29;;;;;;;7.80;2.30;;;21.10;91.00;;;;;;5045081;23;20141;-81
2022/06/12 11:27:19;;;;;;;9.65;2.30;;;21.20;91.10;;;;;;5026981;28;20391;-81
2022/06/12 11:30:03;;;;;;;10.75;2.70;;;21.30;91.10;;;;;;5030366;28;20113;-81
2022/06/12 11:33:01;;;;;;;7.93;1.95;;;21.50;91.50;;;;;;5031528;28;20179;-81
2022/06/12 11:35:57;;;;;;;8.57;2.30;;;21.50;91.40;;;;;;5031947;28;20029;-81
2022/06/12 11:38:30;;;;;;;9.13;2.65;;;21.60;91.50;;;;;;5030463;28;20100;-81
2022/06/12 11:41:02;;;;;;;10.18;2.58;;;21.60;91.90;;;;;;5030796;28;20551;-81
2022/06/12 11:43:35;;;;;;;12.57;3.35;;;21.60;91.60;;;;;;5030663;28;20033;-81
2022/06/12 11:46:20;;;;;;;13.38;3.88;;;21.70;90.20;;;;;;5031388;28;20075;-81
2022/06/12 11:49:02;;;;;;;15.32;5.03;;;21.70;89.50;;;;;;5031145;28;20079;-81
2022/06/12 11:51:36;;;;;;;12.90;3.10;;;21.70;90.30;;;;;;5032028;28;20033;-81
2022/06/12 11:54:11;;;;;;;12.95;3.47;;;21.70;90.70;;;;;;5029930;28;20512;-81
2022/06/12 11:57:05;;;;;;;11.93;3.20;;;21.70;91.40;;;;;;5031379;28;20040;-81
2022/06/12 11:59:42;;;;;;;11.93;3.13;;;21.60;91.60;;;;;;5031382;28;20041;-81
2022/06/12 12:02:14;;;;;;;8.98;2.60;;;21.60;91.30;;;;;;5031365;28;20029;-81
2022/06/12 12:04:59;;;;;;;10.68;2.35;;;21.70;91.70;;;;;;5031124;28;20025;-81
2022/06/12 12:07:45;;;;;;;15.68;3.20;;;21.70;91.00;;;;;;5030932;28;20026;-81
2022/06/12 12:10:23;;;;;;;10.68;2.50;;;21.70;90.80;;;;;;5031079;28;20248;-81
2022/06/12 12:12:55;;;;;;;10.68;2.75;;;21.70;90.30;;;;;;5030085;28;20029;-81
2022/06/12 12:15:30;;;;;;;12.45;2.45;;;21.80;90.20;;;;;;5031116;28;20034;-81
2022/06/12 12:17:58;;;;;;;8.75;2.17;;;21.70;90.10;;;;;;5030669;28;20031;-81
2022/06/12 12:20:38;;;;;;;8.23;2.30;;;21.60;90.30;;;;;;5030845;28;20087;-81
2022/06/12 12:23:10;;;;;;;9.40;2.67;;;21.50;90.30;;;;;;5030850;28;20033;-81
2022/06/12 12:25:52;;;;;;;13.52;2.80;;;21.50;90.50;;;;;;5030501;28;20033;-81
2022/06/12 12:28:34;;;;;;;8.13;3.33;;;21.60;89.80;;;;;;5030056;28;20550;-81
2022/06/12 12:31:12;;;;;;;7.47;2.35;;;21.60;90.50;;;;;;5031150;28;20033;-81
2022/06/12 12:33:40;;;;;;;7.43;2.00;;;21.80;89.20;;;;;;5029078;28;20053;-81
2022/06/12 12:41:53;;;;;;;10.18;2.35;;;22.40;85.80;;;;;;5030575;28;20215;-81
2022/06/12 12:44:32;;;;;;;9.98;2.00;;;22.60;85.40;;;;;;5029988;28;20029;-81
2022/06/12 12:46:59;;;;;;;8.00;2.45;;;22.80;85.90;;;;;;5030322;28;20116;-81
2022/06/12 12:49:39;;;;;;;10.75;2.40;;;23.00;85.30;;;;;;5030319;28;20030;-82
2022/06/12 12:52:14;;;;;;;6.97;1.98;;;22.90;84.60;;;;;;5030013;28;20040;-81
2022/06/12 12:54:58;;;;;;;9.88;2.53;;;22.80;83.20;;;;;;5030007;28;20033;-81
2022/06/12 12:57:42;;;;;;;12.52;2.63;;;22.70;84.40;;;;;;5029289;28;20026;-81
2022/06/12 13:00:33;;;;;;;9.45;3.00;;;22.80;84.80;;;;;;5030027;28;20072;-81
2022/06/12 13:03:08;;;;;;;8.60;2.65;;;22.80;84.50;;;;;;5030019;28;20025;-81
2022/06/12 13:05:45;;;;;;;10.15;2.70;;;22.90;85.10;;;;;;5030424;28;20038;-81
2022/06/12 13:08:29;;;;;;;8.63;2.33;;;22.80;84.20;;;;;;5030212;28;20057;-81
2022/06/12 13:11:13;;;;;;;12.82;3.17;;;22.90;84.90;;;;;;5030213;28;20470;-81
2022/06/12 13:13:56;;;;;;;11.32;2.97;;;22.80;83.90;;;;;;5029340;28;20030;-81
2022/06/12 13:16:40;;;;;;;11.35;2.78;;;22.70;84.50;;;;;;5029940;28;20029;-81
2022/06/12 13:19:27;;;;;;;8.95;2.00;;;22.60;83.90;;;;;;5029748;28;20251;-81
2022/06/12 13:21:55;;;;;;;7.78;2.50;;;22.50;85.10;;;;;;5029784;28;20489;-81
2022/06/12 13:24:34;;;;;;;10.15;2.83;;;22.40;85.00;;;;;;5029914;28;20033;-81
2022/06/12 13:27:25;;;;;;;10.82;2.80;;;22.30;84.80;;;;;;5029018;28;20501;-81
2022/06/12 13:29:52;;;;;;;7.65;2.65;;;22.30;83.80;;;;;;5028309;28;20379;-81
2022/06/12 13:32:32;;;;;;;11.38;2.67;;;22.30;85.30;;;;;;5029519;28;20026;-81
2022/06/12 13:35:19;;;;;;;8.63;2.33;;;22.40;85.00;;;;;;5029927;28;20041;-81
2022/06/12 13:37:49;;;;;;;8.90;2.00;;;22.40;84.50;;;;;;5011902;28;20033;-81
2022/06/12 13:40:36;;;;;;;9.30;2.40;;;22.50;83.40;;;;;;5029687;28;20036;-81